Miami, Florida
Traffic Map
Current Weather Conditions
Miami, Florida
Clear
Clear
77°
Feels Like: 79°
Wind Chill: 77° Ceiling: Unl
Heat Index: 79° Visibility: 10mi
Dew Point: 70° Wind: 8mph
Humidity: 79% Direction: 190° (S)
Pressure: 29.93in Gusts: 0mph
Raw Report DataKMIA 270753Z 19007KT 10SM CLR 25/21 A2993 RMK AO2 SLP134 T02500211
Traffic Incident Summary
Active as of:
Severity:
Category:
InformationThere was an issue retrieving the traffic information for this location. Please try a different location or try again shortly.
Advertisements
Track Severe Weather on mobile